sensor_id;sensor_type;location;lat;lon;timestamp;temperature;humidity
33428;DHT22;19769;48.150;16.306;2022-09-09T00:02:29;17.70;99.90
33428;DHT22;19769;48.150;16.306;2022-09-09T00:04:59;17.70;99.90
33428;DHT22;19769;48.150;16.306;2022-09-09T00:07:45;17.70;99.90
33428;DHT22;19769;48.150;16.306;2022-09-09T00:10:38;17.70;99.90
33428;DHT22;19769;48.150;16.306;2022-09-09T00:21:37;17.60;99.90
33428;DHT22;19769;48.150;16.306;2022-09-09T00:24:52;17.60;99.90
33428;DHT22;19769;48.150;16.306;2022-09-09T00:27:36;17.60;99.90
33428;DHT22;19769;48.150;16.306;2022-09-09T00:32:46;17.60;99.90
33428;DHT22;19769;48.150;16.306;2022-09-09T00:35:36;17.50;99.90
33428;DHT22;19769;48.150;16.306;2022-09-09T00:38:20;17.50;99.90
33428;DHT22;19769;48.150;16.306;2022-09-09T00:40:52;17.50;99.90
33428;DHT22;19769;48.150;16.306;2022-09-09T00:43:37;17.50;99.90
33428;DHT22;19769;48.150;16.306;2022-09-09T00:48:57;17.40;99.90
33428;DHT22;19769;48.150;16.306;2022-09-09T00:54:48;17.40;99.90
33428;DHT22;19769;48.150;16.306;2022-09-09T00:57:26;17.40;99.90
33428;DHT22;19769;48.150;16.306;2022-09-09T01:05:12;17.30;99.90
33428;DHT22;19769;48.150;16.306;2022-09-09T01:07:44;17.30;99.90
33428;DHT22;19769;48.150;16.306;2022-09-09T01:10:47;17.30;99.90
33428;DHT22;19769;48.150;16.306;2022-09-09T01:13:24;17.30;99.90
33428;DHT22;19769;48.150;16.306;2022-09-09T01:15:51;17.30;99.90
33428;DHT22;19769;48.150;16.306;2022-09-09T01:18:22;17.30;99.90
33428;DHT22;19769;48.150;16.306;2022-09-09T01:21:23;17.30;99.90
33428;DHT22;19769;48.150;16.306;2022-09-09T01:26:44;17.30;99.90
33428;DHT22;19769;48.150;16.306;2022-09-09T01:29:23;17.30;99.90
33428;DHT22;19769;48.150;16.306;2022-09-09T01:31:58;17.20;99.90
33428;DHT22;19769;48.150;16.306;2022-09-09T01:34:30;17.20;99.90
33428;DHT22;19769;48.150;16.306;2022-09-09T01:37:08;17.20;99.90
33428;DHT22;19769;48.150;16.306;2022-09-09T01:39:38;17.10;99.90
33428;DHT22;19769;48.150;16.306;2022-09-09T01:42:09;17.20;99.90
33428;DHT22;19769;48.150;16.306;2022-09-09T01:44:37;17.20;99.90
33428;DHT22;19769;48.150;16.306;2022-09-09T01:47:04;17.10;99.90
33428;DHT22;19769;48.150;16.306;2022-09-09T01:49:31;17.10;99.90
33428;DHT22;19769;48.150;16.306;2022-09-09T01:52:01;17.10;99.90
33428;DHT22;19769;48.150;16.306;2022-09-09T01:54:35;17.10;99.90
33428;DHT22;19769;48.150;16.306;2022-09-09T01:57:21;17.10;99.90
33428;DHT22;19769;48.150;16.306;2022-09-09T02:05:41;17.10;99.90
33428;DHT22;19769;48.150;16.306;2022-09-09T02:11:13;17.00;99.90
33428;DHT22;19769;48.150;16.306;2022-09-09T02:13:44;17.00;99.90
33428;DHT22;19769;48.150;16.306;2022-09-09T02:21:33;17.00;99.90
33428;DHT22;19769;48.150;16.306;2022-09-09T02:24:05;17.00;99.90
33428;DHT22;19769;48.150;16.306;2022-09-09T02:26:40;17.00;99.90
33428;DHT22;19769;48.150;16.306;2022-09-09T02:29:13;17.00;99.90
33428;DHT22;19769;48.150;16.306;2022-09-09T02:31:52;16.90;99.90
33428;DHT22;19769;48.150;16.306;2022-09-09T02:34:25;16.90;99.90
33428;DHT22;19769;48.150;16.306;2022-09-09T02:36:53;16.90;99.90
33428;DHT22;19769;48.150;16.306;2022-09-09T02:39:20;16.90;99.90
33428;DHT22;19769;48.150;16.306;2022-09-09T02:41:47;16.90;99.90
33428;DHT22;19769;48.150;16.306;2022-09-09T02:44:15;16.80;99.90
33428;DHT22;19769;48.150;16.306;2022-09-09T02:49:59;16.90;99.90
33428;DHT22;19769;48.150;16.306;2022-09-09T02:55:15;16.80;99.90
33428;DHT22;19769;48.150;16.306;2022-09-09T02:58:02;16.80;99.90
33428;DHT22;19769;48.150;16.306;2022-09-09T03:00:32;16.80;99.90
33428;DHT22;19769;48.150;16.306;2022-09-09T03:03:00;16.80;99.90
33428;DHT22;19769;48.150;16.306;2022-09-09T03:05:27;16.70;99.90
33428;DHT22;19769;48.150;16.306;2022-09-09T03:07:54;16.80;99.90
33428;DHT22;19769;48.150;16.306;2022-09-09T03:10:20;16.70;99.90
33428;DHT22;19769;48.150;16.306;2022-09-09T03:12:46;16.80;99.90
33428;DHT22;19769;48.150;16.306;2022-09-09T03:15:12;16.80;99.90
33428;DHT22;19769;48.150;16.306;2022-09-09T03:17:39;16.80;99.90
33428;DHT22;19769;48.150;16.306;2022-09-09T03:20:06;16.80;99.90
33428;DHT22;19769;48.150;16.306;2022-09-09T03:22:34;16.80;99.90
33428;DHT22;19769;48.150;16.306;2022-09-09T03:25:00;16.80;99.90
33428;DHT22;19769;48.150;16.306;2022-09-09T03:27:29;16.70;99.90
33428;DHT22;19769;48.150;16.306;2022-09-09T03:29:55;16.80;99.90
33428;DHT22;19769;48.150;16.306;2022-09-09T03:32:23;16.80;99.90
33428;DHT22;19769;48.150;16.306;2022-09-09T03:34:52;16.80;99.90
33428;DHT22;19769;48.150;16.306;2022-09-09T03:37:21;16.80;99.90
33428;DHT22;19769;48.150;16.306;2022-09-09T03:39:49;16.80;99.90
33428;DHT22;19769;48.150;16.306;2022-09-09T03:42:16;16.70;99.90
33428;DHT22;19769;48.150;16.306;2022-09-09T03:44:45;16.80;99.90
33428;DHT22;19769;48.150;16.306;2022-09-09T03:47:18;16.80;99.90
33428;DHT22;19769;48.150;16.306;2022-09-09T03:49:44;16.80;99.90
33428;DHT22;19769;48.150;16.306;2022-09-09T03:52:10;16.70;99.90
33428;DHT22;19769;48.150;16.306;2022-09-09T03:54:37;16.70;99.90
33428;DHT22;19769;48.150;16.306;2022-09-09T03:57:04;16.70;99.90
33428;DHT22;19769;48.150;16.306;2022-09-09T03:59:30;16.70;99.90
33428;DHT22;19769;48.150;16.306;2022-09-09T04:01:56;16.70;99.90
33428;DHT22;19769;48.150;16.306;2022-09-09T04:04:24;16.70;99.90
33428;DHT22;19769;48.150;16.306;2022-09-09T04:06:53;16.70;99.90
33428;DHT22;19769;48.150;16.306;2022-09-09T04:09:19;16.70;99.90
33428;DHT22;19769;48.150;16.306;2022-09-09T05:36:29;16.60;99.90
33428;DHT22;19769;48.150;16.306;2022-09-09T05:38:56;16.90;99.90
33428;DHT22;19769;48.150;16.306;2022-09-09T05:41:24;16.90;99.90
33428;DHT22;19769;48.150;16.306;2022-09-09T05:43:52;17.00;99.90
33428;DHT22;19769;48.150;16.306;2022-09-09T05:46:21;17.10;99.90
33428;DHT22;19769;48.150;16.306;2022-09-09T05:48:50;17.10;99.90
33428;DHT22;19769;48.150;16.306;2022-09-09T05:51:23;17.20;99.90
33428;DHT22;19769;48.150;16.306;2022-09-09T05:53:50;17.20;99.90
33428;DHT22;19769;48.150;16.306;2022-09-09T05:56:24;17.30;99.90
33428;DHT22;19769;48.150;16.306;2022-09-09T05:58:54;17.40;99.90
33428;DHT22;19769;48.150;16.306;2022-09-09T06:01:25;17.50;99.90
33428;DHT22;19769;48.150;16.306;2022-09-09T07:03:39;17.50;99.90
33428;DHT22;19769;48.150;16.306;2022-09-09T07:16:10;20.30;99.90
33428;DHT22;19769;48.150;16.306;2022-09-09T07:18:36;20.70;99.80
33428;DHT22;19769;48.150;16.306;2022-09-09T07:21:03;20.60;99.90
33428;DHT22;19769;48.150;16.306;2022-09-09T07:57:51;20.60;99.90
33428;DHT22;19769;48.150;16.306;2022-09-09T08:00:17;21.90;96.40
33428;DHT22;19769;48.150;16.306;2022-09-09T08:02:49;21.90;96.40
33428;DHT22;19769;48.150;16.306;2022-09-09T08:05:15;21.90;96.30
33428;DHT22;19769;48.150;16.306;2022-09-09T08:07:43;22.00;95.90
33428;DHT22;19769;48.150;16.306;2022-09-09T08:10:09;22.00;96.10
33428;DHT22;19769;48.150;16.306;2022-09-09T08:12:38;22.10;95.10
33428;DHT22;19769;48.150;16.306;2022-09-09T08:15:04;22.20;94.80
33428;DHT22;19769;48.150;16.306;2022-09-09T08:17:32;22.30;95.00
33428;DHT22;19769;48.150;16.306;2022-09-09T08:20:02;22.50;94.90
33428;DHT22;19769;48.150;16.306;2022-09-09T08:22:32;22.60;93.60
33428;DHT22;19769;48.150;16.306;2022-09-09T08:24:58;22.70;93.20
33428;DHT22;19769;48.150;16.306;2022-09-09T08:34:47;23.00;93.30
33428;DHT22;19769;48.150;16.306;2022-09-09T08:37:18;23.60;90.60
33428;DHT22;19769;48.150;16.306;2022-09-09T08:39:46;23.60;90.50
33428;DHT22;19769;48.150;16.306;2022-09-09T08:42:40;23.60;90.90
33428;DHT22;19769;48.150;16.306;2022-09-09T08:45:31;23.70;90.30
33428;DHT22;19769;48.150;16.306;2022-09-09T09:50:19;24.10;86.70
33428;DHT22;19769;48.150;16.306;2022-09-09T09:53:01;26.10;69.00
33428;DHT22;19769;48.150;16.306;2022-09-09T09:55:32;25.90;68.00
33428;DHT22;19769;48.150;16.306;2022-09-09T09:58:04;25.90;67.90
33428;DHT22;19769;48.150;16.306;2022-09-09T10:00:31;25.90;69.20
33428;DHT22;19769;48.150;16.306;2022-09-09T10:03:29;25.90;67.30
33428;DHT22;19769;48.150;16.306;2022-09-09T11:00:20;26.10;67.90
33428;DHT22;19769;48.150;16.306;2022-09-09T11:03:01;27.90;59.60
33428;DHT22;19769;48.150;16.306;2022-09-09T11:13:17;26.90;61.60
33428;DHT22;19769;48.150;16.306;2022-09-09T11:15:48;26.70;61.70
33428;DHT22;19769;48.150;16.306;2022-09-09T11:18:19;26.60;62.40
33428;DHT22;19769;48.150;16.306;2022-09-09T11:20:51;26.60;64.40
33428;DHT22;19769;48.150;16.306;2022-09-09T11:23:24;26.60;64.30
33428;DHT22;19769;48.150;16.306;2022-09-09T11:25:57;26.60;64.90
33428;DHT22;19769;48.150;16.306;2022-09-09T11:40:17;26.30;65.90
33428;DHT22;19769;48.150;16.306;2022-09-09T11:42:46;26.30;66.50
33428;DHT22;19769;48.150;16.306;2022-09-09T11:45:24;26.50;65.70
33428;DHT22;19769;48.150;16.306;2022-09-09T11:48:03;26.60;65.20
33428;DHT22;19769;48.150;16.306;2022-09-09T12:37:31;29.10;53.30
33428;DHT22;19769;48.150;16.306;2022-09-09T13:17:30;28.00;54.60
33428;DHT22;19769;48.150;16.306;2022-09-09T14:39:10;25.10;62.70
33428;DHT22;19769;48.150;16.306;2022-09-09T14:41:36;22.20;90.60
33428;DHT22;19769;48.150;16.306;2022-09-09T14:44:01;22.10;91.10
33428;DHT22;19769;48.150;16.306;2022-09-09T14:46:27;22.10;91.60
33428;DHT22;19769;48.150;16.306;2022-09-09T14:48:53;22.10;92.40
33428;DHT22;19769;48.150;16.306;2022-09-09T14:51:21;22.00;93.50
33428;DHT22;19769;48.150;16.306;2022-09-09T14:53:56;21.90;94.20
33428;DHT22;19769;48.150;16.306;2022-09-09T14:56:24;21.70;95.40
33428;DHT22;19769;48.150;16.306;2022-09-09T14:58:54;21.70;96.30
33428;DHT22;19769;48.150;16.306;2022-09-09T15:01:21;21.70;97.10
33428;DHT22;19769;48.150;16.306;2022-09-09T15:03:56;21.60;98.10
33428;DHT22;19769;48.150;16.306;2022-09-09T15:06:24;21.40;99.00
33428;DHT22;19769;48.150;16.306;2022-09-09T15:08:52;21.40;98.90
33428;DHT22;19769;48.150;16.306;2022-09-09T15:11:18;21.30;98.60
33428;DHT22;19769;48.150;16.306;2022-09-09T15:13:46;21.30;98.40
33428;DHT22;19769;48.150;16.306;2022-09-09T15:16:17;21.30;98.10
33428;DHT22;19769;48.150;16.306;2022-09-09T15:18:44;21.20;97.30
33428;DHT22;19769;48.150;16.306;2022-09-09T15:21:16;21.20;97.20
33428;DHT22;19769;48.150;16.306;2022-09-09T15:23:42;21.20;97.20
33428;DHT22;19769;48.150;16.306;2022-09-09T15:26:09;21.20;97.20
33428;DHT22;19769;48.150;16.306;2022-09-09T15:28:37;21.20;97.20
33428;DHT22;19769;48.150;16.306;2022-09-09T15:31:11;21.10;97.40
33428;DHT22;19769;48.150;16.306;2022-09-09T15:33:42;21.10;97.60
33428;DHT22;19769;48.150;16.306;2022-09-09T15:36:21;21.10;97.80
33428;DHT22;19769;48.150;16.306;2022-09-09T15:38:48;21.00;97.80
33428;DHT22;19769;48.150;16.306;2022-09-09T15:41:14;20.90;98.00
33428;DHT22;19769;48.150;16.306;2022-09-09T16:20:34;21.00;98.70
33428;DHT22;19769;48.150;16.306;2022-09-09T16:23:01;20.70;99.00
33428;DHT22;19769;48.150;16.306;2022-09-09T16:25:27;20.70;99.40
33428;DHT22;19769;48.150;16.306;2022-09-09T16:27:53;20.60;99.60
33428;DHT22;19769;48.150;16.306;2022-09-09T16:30:18;20.50;99.80
33428;DHT22;19769;48.150;16.306;2022-09-09T16:32:44;20.40;99.90
33428;DHT22;19769;48.150;16.306;2022-09-09T16:35:10;20.30;99.90
33428;DHT22;19769;48.150;16.306;2022-09-09T16:37:38;20.30;99.90
33428;DHT22;19769;48.150;16.306;2022-09-09T16:40:07;20.30;99.90
33428;DHT22;19769;48.150;16.306;2022-09-09T16:42:34;20.30;99.90
33428;DHT22;19769;48.150;16.306;2022-09-09T16:45:02;20.20;99.90
33428;DHT22;19769;48.150;16.306;2022-09-09T16:47:28;20.10;99.90
33428;DHT22;19769;48.150;16.306;2022-09-09T16:49:53;20.00;99.90
33428;DHT22;19769;48.150;16.306;2022-09-09T17:09:26;20.10;99.90
33428;DHT22;19769;48.150;16.306;2022-09-09T17:11:54;20.10;99.90
33428;DHT22;19769;48.150;16.306;2022-09-09T17:14:21;20.00;99.90
33428;DHT22;19769;48.150;16.306;2022-09-09T17:16:48;19.90;99.90
33428;DHT22;19769;48.150;16.306;2022-09-09T17:19:14;19.80;99.90
33428;DHT22;19769;48.150;16.306;2022-09-09T17:21:40;19.90;99.90
33428;DHT22;19769;48.150;16.306;2022-09-09T17:24:06;19.80;99.90
